Time;durP1;ratioP1;P1;durP2;ratioP2;P2;SDS_P1;SDS_P2;PMS_P1;PMS_P2;Temp;Humidity;BMP_temperature;BMP_pressure;BME280_temperature;BME280_humidity;BME280_pressure;Samples;Min_cycle;Max_cycle;Signal;HPM_P1;HPM_P2
2023/12/27 00:00:37;;;;;;;18.70;8.15;;;;;;;5.91;96.23;101859.72;3609170;39;20418;-66
2023/12/27 00:03:04;;;;;;;18.27;7.95;;;;;;;5.92;95.81;101860.56;3608946;39;20046;-66
2023/12/27 00:05:30;;;;;;;18.08;7.63;;;;;;;5.92;95.61;101860.56;3610676;39;20057;-66
2023/12/27 00:07:56;;;;;;;16.65;7.80;;;;;;;5.92;95.88;101847.22;3610832;39;20383;-66
2023/12/27 00:10:22;;;;;;;15.57;7.50;;;;;;;5.92;95.72;101853.44;3608596;39;20038;-66
2023/12/27 00:12:48;;;;;;;20.70;8.50;;;;;;;5.91;95.77;101845.50;3610395;39;20299;-65
2023/12/27 00:15:13;;;;;;;18.48;7.70;;;;;;;5.92;95.94;101849.91;3611046;39;20072;-66
2023/12/27 00:17:39;;;;;;;17.80;7.60;;;;;;;5.92;95.78;101844.56;3609573;39;20225;-65
2023/12/27 00:20:05;;;;;;;25.10;8.45;;;;;;;5.91;95.59;101849.03;3610648;39;20096;-66
2023/12/27 00:22:31;;;;;;;22.92;8.32;;;;;;;5.90;95.48;101846.38;3609537;39;20058;-66
2023/12/27 00:24:56;;;;;;;18.40;8.05;;;;;;;5.90;95.48;101849.06;3611116;39;20307;-66
2023/12/27 00:27:22;;;;;;;19.40;7.97;;;;;;;5.89;96.12;101856.19;3609925;39;20117;-66
2023/12/27 00:29:48;;;;;;;17.95;8.10;;;;;;;5.93;96.01;101851.69;3612640;39;20055;-65
2023/12/27 00:32:15;;;;;;;17.90;8.10;;;;;;;5.94;95.86;101843.66;3612790;39;20298;-65
2023/12/27 00:34:40;;;;;;;17.98;8.27;;;;;;;5.97;96.12;101848.03;3608791;39;20106;-65
2023/12/27 00:37:07;;;;;;;15.98;7.53;;;;;;;5.96;95.51;101844.50;3610865;39;20093;-65
2023/12/27 00:39:34;;;;;;;20.48;8.50;;;;;;;5.98;95.81;101836.44;3610012;39;20053;-65
2023/12/27 00:42:00;;;;;;;17.00;8.15;;;;;;;6.00;95.71;101837.28;3611383;39;20058;-65
2023/12/27 00:44:25;;;;;;;19.48;8.35;;;;;;;6.01;95.25;101844.34;3610191;39;20078;-65
2023/12/27 00:46:51;;;;;;;19.80;7.22;;;;;;;6.02;95.91;101830.09;3610792;39;20058;-65
2023/12/27 00:49:17;;;;;;;20.92;8.43;;;;;;;6.06;96.84;101837.13;3609900;39;20086;-65
2023/12/27 00:51:44;;;;;;;20.77;8.10;;;;;;;5.91;96.05;101811.66;3610016;39;20284;-65
2023/12/27 00:54:09;;;;;;;21.92;8.32;;;;;;;6.06;96.05;101839.78;3611670;39;20325;-65
2023/12/27 00:56:35;;;;;;;15.55;7.47;;;;;;;6.02;95.55;101846.97;3611527;39;20053;-65
2023/12/27 00:59:01;;;;;;;19.85;8.18;;;;;;;6.02;95.61;101854.97;3612547;39;20047;-65
2023/12/27 01:01:30;;;;;;;17.15;8.30;;;;;;;5.98;95.35;101845.31;3611739;39;21702;-65
2023/12/27 01:03:56;;;;;;;16.30;8.32;;;;;;;5.97;95.83;101843.56;3612604;39;20419;-65
2023/12/27 01:06:22;;;;;;;25.25;9.52;;;;;;;5.68;95.78;101788.28;3612676;39;20131;-65
2023/12/27 01:08:47;;;;;;;19.88;8.23;;;;;;;5.95;95.79;101833.84;3612403;39;20090;-65
2023/12/27 01:11:13;;;;;;;23.27;8.07;;;;;;;5.78;95.58;101805.78;3613431;39;20063;-65
2023/12/27 01:13:39;;;;;;;18.35;8.32;;;;;;;5.89;95.86;101825.97;3612602;39;20063;-65
2023/12/27 01:16:05;;;;;;;19.33;8.32;;;;;;;5.87;96.18;101818.03;3613588;39;20433;-65
2023/12/27 01:18:31;;;;;;;17.95;7.78;;;;;;;5.82;95.26;101815.44;3612431;39;20127;-65
2023/12/27 01:20:57;;;;;;;17.30;8.10;;;;;;;5.78;94.71;101815.59;3611426;39;20069;-65
2023/12/27 01:23:22;;;;;;;15.80;7.45;;;;;;;5.68;95.67;101798.06;3612069;39;20064;-65
2023/12/27 01:25:48;;;;;;;17.95;7.70;;;;;;;5.71;95.04;101806.88;3613533;39;20089;-65
2023/12/27 01:28:14;;;;;;;17.77;7.63;;;;;;;5.67;95.42;101807.84;3613055;39;20051;-65
2023/12/27 01:30:40;;;;;;;21.25;7.43;;;;;;;5.63;95.48;101811.50;3610470;39;20107;-65
2023/12/27 01:33:06;;;;;;;22.00;8.27;;;;;;;5.60;95.58;101808.94;3612072;39;20472;-65
2023/12/27 01:35:31;;;;;;;17.60;7.10;;;;;;;5.59;96.00;101812.50;3613062;39;20066;-65
2023/12/27 01:37:57;;;;;;;23.40;11.73;;;;;;;5.59;96.13;101816.06;3611158;39;20059;-65
2023/12/27 01:40:22;;;;;;;26.10;13.00;;;;;;;5.59;96.81;101810.72;3612622;39;20051;-65
2023/12/27 01:42:48;;;;;;;21.27;8.18;;;;;;;5.61;97.02;101812.47;3610838;39;20391;-65
2023/12/27 01:45:14;;;;;;;20.13;8.00;;;;;;;5.62;96.58;101816.91;3613245;39;20061;-65
2023/12/27 01:47:39;;;;;;;19.23;7.88;;;;;;;5.63;96.67;101821.31;3611759;39;20300;-65
2023/12/27 01:50:10;;;;;;;18.73;8.05;;;;;;;5.62;97.12;101825.78;3613382;39;20049;-65
2023/12/27 01:52:40;;;;;;;20.88;8.43;;;;;;;5.67;97.10;101830.97;3612233;39;20046;-65
2023/12/27 01:55:09;;;;;;;21.23;7.75;;;;;;;5.70;97.05;101834.44;3611383;39;20059;-65
2023/12/27 01:57:38;;;;;;;19.58;7.80;;;;;;;5.71;96.73;101830.88;3611511;39;20398;-65
2023/12/27 02:00:08;;;;;;;14.82;7.82;;;;;;;5.73;96.74;101829.03;3610389;39;20376;-65
2023/12/27 02:02:33;;;;;;;19.73;7.10;;;;;;;5.74;96.90;101820.13;3611673;39;20067;-65
2023/12/27 02:04:59;;;;;;;20.45;7.72;;;;;;;5.76;97.10;101812.94;3612104;39;20437;-65
2023/12/27 02:07:25;;;;;;;22.67;8.13;;;;;;;5.80;97.25;101809.31;3612588;39;20059;-65
2023/12/27 02:09:52;;;;;;;22.42;7.97;;;;;;;5.84;97.44;101809.22;3611907;39;20473;-65
2023/12/27 02:12:30;;;;;;;18.65;7.75;;;;;;;5.82;97.33;101799.44;3602697;39;20086;-65
2023/12/27 02:14:56;;;;;;;18.67;6.75;;;;;;;5.88;97.09;101801.09;3612051;39;20394;-65
2023/12/27 02:17:26;;;;;;;19.17;7.10;;;;;;;5.91;97.02;101813.47;3612251;39;20311;-65
2023/12/27 02:19:55;;;;;;;16.88;7.07;;;;;;;5.91;96.75;101811.66;3611664;39;20088;-65
2023/12/27 02:22:25;;;;;;;21.75;7.05;;;;;;;5.93;96.63;101809.88;3611882;39;20084;-65
2023/12/27 02:24:56;;;;;;;18.67;7.07;;;;;;;5.84;96.39;101785.22;3611839;39;20062;-65
2023/12/27 02:27:22;;;;;;;16.50;6.65;;;;;;;5.66;96.12;101755.41;3612464;39;20045;-65
2023/12/27 02:29:48;;;;;;;18.20;7.30;;;;;;;5.97;95.66;101797.34;3612127;39;20047;-65
2023/12/27 02:32:14;;;;;;;17.77;7.20;;;;;;;5.95;95.48;101786.69;3612505;39;20434;-65
2023/12/27 02:34:40;;;;;;;17.73;6.13;;;;;;;5.95;95.56;101788.47;3610490;39;20055;-65
2023/12/27 02:37:05;;;;;;;16.48;6.47;;;;;;;5.95;95.16;101785.81;3612904;39;20094;-65
2023/12/27 02:39:31;;;;;;;18.77;7.03;;;;;;;5.77;95.33;101760.47;3611710;39;20050;-65
2023/12/27 02:41:57;;;;;;;20.70;6.82;;;;;;;5.94;95.20;101779.59;3611818;39;20046;-65
2023/12/27 02:44:26;;;;;;;17.67;6.72;;;;;;;5.95;95.42;101778.69;3612153;39;20043;-65
2023/12/27 02:46:55;;;;;;;17.45;6.53;;;;;;;5.84;95.35;101762.06;3612685;39;20043;-65
2023/12/27 02:49:21;;;;;;;18.38;6.65;;;;;;;5.92;95.01;101770.72;3612126;39;20057;-65
2023/12/27 02:51:47;;;;;;;17.75;6.53;;;;;;;5.93;94.78;101760.94;3611160;39;20075;-65
2023/12/27 02:54:13;;;;;;;16.77;6.28;;;;;;;5.88;95.24;101750.38;3612541;39;20395;-65
2023/12/27 02:56:39;;;;;;;16.25;6.07;;;;;;;5.92;95.01;101760.03;3611551;39;20059;-65
2023/12/27 02:59:04;;;;;;;18.25;6.38;;;;;;;5.92;95.57;101759.19;3610826;39;20046;-65
2023/12/27 03:01:30;;;;;;;15.73;6.10;;;;;;;5.93;95.54;101752.94;3610062;39;20068;-65
2023/12/27 03:03:56;;;;;;;14.98;6.72;;;;;;;5.94;95.57;101746.72;3612658;39;20053;-65
2023/12/27 03:06:21;;;;;;;18.88;7.10;;;;;;;5.95;95.67;101749.31;3612709;39;20094;-65
2023/12/27 03:08:47;;;;;;;18.15;6.55;;;;;;;5.96;95.29;101737.75;3609877;39;20390;-65
2023/12/27 03:11:12;;;;;;;16.15;6.55;;;;;;;5.97;95.95;101741.28;3612197;39;20059;-65
2023/12/27 03:13:38;;;;;;;16.05;6.82;;;;;;;5.99;95.87;101739.44;3611472;39;20065;-65
2023/12/27 03:16:05;;;;;;;15.52;5.95;;;;;;;6.01;95.77;101737.59;3612084;39;20055;-65
2023/12/27 03:18:33;;;;;;;13.63;6.55;;;;;;;6.00;95.91;101723.38;3611861;39;20070;-65
2023/12/27 03:20:59;;;;;;;15.80;6.20;;;;;;;6.04;95.95;101716.16;3611834;39;20085;-65
2023/12/27 03:23:25;;;;;;;17.70;6.45;;;;;;;6.06;95.68;101711.66;3612407;39;20054;-65
2023/12/27 03:25:50;;;;;;;16.35;6.60;;;;;;;6.08;96.04;101701.81;3611562;39;20058;-65
2023/12/27 03:28:16;;;;;;;19.25;7.00;;;;;;;6.09;95.95;101700.91;3612749;39;20050;-65
2023/12/27 03:30:41;;;;;;;18.83;6.78;;;;;;;6.09;95.95;101703.56;3610413;39;20055;-65
2023/12/27 03:33:07;;;;;;;15.07;6.00;;;;;;;6.11;96.20;101712.41;3613253;39;20059;-65
2023/12/27 03:35:33;;;;;;;19.00;7.03;;;;;;;6.13;95.88;101713.25;3612747;39;20063;-65
2023/12/27 03:37:58;;;;;;;22.75;7.15;;;;;;;6.15;95.35;101703.41;3613348;39;20064;-65
2023/12/27 03:40:24;;;;;;;17.27;6.57;;;;;;;6.16;95.53;101699.81;3614632;39;20061;-64
2023/12/27 03:42:49;;;;;;;13.85;5.85;;;;;;;6.17;95.32;101693.53;3613391;39;20074;-65
2023/12/27 03:45:17;;;;;;;16.27;5.82;;;;;;;6.18;94.98;101689.06;3614894;39;20060;-65
2023/12/27 03:47:44;;;;;;;15.05;5.93;;;;;;;6.15;94.87;101682.03;3611709;39;20082;-65
2023/12/27 03:50:12;;;;;;;18.95;6.65;;;;;;;6.15;94.45;101666.03;3611944;39;20308;-65
2023/12/27 03:52:37;;;;;;;17.40;6.50;;;;;;;6.16;95.26;101670.44;3611227;39;20495;-65
2023/12/27 03:55:05;;;;;;;15.77;6.75;;;;;;;6.15;94.13;101671.38;3611228;39;20060;-65
2023/12/27 03:57:31;;;;;;;17.73;6.50;;;;;;;6.14;94.53;101666.06;3597564;39;20046;-65
2023/12/27 03:59:56;;;;;;;17.33;6.63;;;;;;;6.13;94.83;101665.19;3599346;39;20063;-65
2023/12/27 04:02:22;;;;;;;17.35;6.95;;;;;;;6.13;95.41;101651.84;3610832;39;20051;-65
2023/12/27 04:04:47;;;;;;;18.42;6.53;;;;;;;6.14;94.95;101650.03;3607989;39;20066;-65
2023/12/27 04:07:13;;;;;;;20.00;6.55;;;;;;;6.17;95.33;101645.47;3606967;39;20090;-65
2023/12/27 04:09:40;;;;;;;21.33;7.95;;;;;;;5.85;95.07;101589.50;3606320;39;20315;-65
2023/12/27 04:12:09;;;;;;;15.85;6.88;;;;;;;6.24;95.09;101644.38;3609923;39;20039;-65
2023/12/27 04:14:35;;;;;;;21.13;7.07;;;;;;;6.30;94.89;101648.66;3609798;39;20059;-65
2023/12/27 04:17:00;;;;;;;16.05;7.28;;;;;;;6.32;94.12;101640.59;3608146;39;20100;-65
2023/12/27 04:19:26;;;;;;;20.23;6.68;;;;;;;6.37;94.04;101644.00;3607728;39;20296;-65
2023/12/27 04:21:51;;;;;;;21.55;7.10;;;;;;;6.40;93.88;101636.75;3605925;39;20059;-65
2023/12/27 04:24:17;;;;;;;19.45;7.22;;;;;;;6.41;94.13;101634.97;3607628;39;20052;-66
2023/12/27 04:26:43;;;;;;;15.68;7.07;;;;;;;6.46;94.54;101630.34;3608786;39;20268;-64
2023/12/27 04:29:10;;;;;;;18.02;7.13;;;;;;;6.34;94.16;101606.69;3610596;39;20055;-64
2023/12/27 04:31:39;;;;;;;22.52;7.25;;;;;;;6.47;93.58;101621.41;3609402;39;20061;-64
2023/12/27 04:34:05;;;;;;;21.90;7.88;;;;;;;6.54;93.45;101636.34;3612262;39;20051;-64
2023/12/27 04:36:35;;;;;;;17.10;6.75;;;;;;;6.32;92.94;101595.22;3609129;39;20058;-64
2023/12/27 04:39:02;;;;;;;16.88;6.78;;;;;;;6.58;93.50;101637.09;3608750;39;20050;-64
2023/12/27 04:41:28;;;;;;;21.73;7.20;;;;;;;6.61;93.56;101637.00;3613218;39;20082;-64
2023/12/27 04:43:53;;;;;;;18.45;7.05;;;;;;;6.66;92.95;101635.03;3608076;39;20070;-64
2023/12/27 04:46:19;;;;;;;24.90;7.63;;;;;;;6.70;93.17;101639.38;3610594;39;20043;-64
2023/12/27 04:48:44;;;;;;;17.13;7.13;;;;;;;6.72;92.62;101624.16;3608457;39;20051;-64
2023/12/27 04:51:10;;;;;;;16.95;6.75;;;;;;;6.76;93.08;101627.63;3609399;39;20047;-64
2023/12/27 04:53:36;;;;;;;15.75;6.10;;;;;;;6.80;92.46;101613.22;3608978;39;20059;-64
2023/12/27 04:56:01;;;;;;;17.73;6.60;;;;;;;6.83;92.34;101613.13;3612423;39;20085;-64
2023/12/27 04:58:27;;;;;;;17.98;6.38;;;;;;;6.88;92.61;101614.72;3610395;39;20055;-64
2023/12/27 05:00:52;;;;;;;21.00;6.35;;;;;;;6.91;92.47;101613.72;3607086;39;20058;-64
2023/12/27 05:03:18;;;;;;;16.48;6.43;;;;;;;6.93;92.60;101602.06;3608003;39;20059;-64
2023/12/27 05:05:44;;;;;;;20.75;6.15;;;;;;;6.92;92.55;101586.09;3608948;39;20255;-64
2023/12/27 05:08:09;;;;;;;15.35;6.65;;;;;;;6.98;92.46;101599.25;3610483;39;20048;-64
2023/12/27 05:10:35;;;;;;;18.88;6.80;;;;;;;6.98;93.35;101591.22;3608390;39;20335;-64
2023/12/27 05:13:00;;;;;;;16.98;6.20;;;;;;;6.97;93.77;101582.31;3607035;39;20039;-64
2023/12/27 05:15:26;;;;;;;15.82;6.43;;;;;;;6.96;94.05;101591.28;3610663;39;20296;-64
2023/12/27 05:17:51;;;;;;;18.65;6.90;;;;;;;6.97;94.03;101584.13;3608671;39;20054;-65
2023/12/27 05:20:17;;;;;;;15.23;6.35;;;;;;;6.97;94.44;101584.97;3609056;39;20320;-64
2023/12/27 05:22:44;;;;;;;19.52;6.50;;;;;;;6.97;94.75;101582.31;3608486;39;20061;-64
2023/12/27 05:25:11;;;;;;;16.88;6.63;;;;;;;6.94;95.06;101570.84;3608997;39;20055;-64
2023/12/27 05:27:37;;;;;;;17.85;6.95;;;;;;;6.84;95.73;101550.72;3609211;39;20311;-64
2023/12/27 05:30:03;;;;;;;16.38;6.80;;;;;;;6.96;96.68;101571.69;3606890;39;20043;-65
2023/12/27 05:32:29;;;;;;;18.20;8.05;;;;;;;7.00;96.26;101559.94;3607112;39;20065;-64
2023/12/27 05:34:55;;;;;;;63.30;30.83;;;;;;;6.98;97.22;101553.81;3606813;39;20066;-65
2023/12/27 05:37:21;;;;;;;114.43;47.75;;;;;;;7.04;96.93;101555.38;3607872;39;20051;-65
2023/12/27 05:39:47;;;;;;;35.95;15.02;;;;;;;7.05;97.63;101557.13;3606675;39;20061;-65
2023/12/27 05:42:15;;;;;;;22.17;8.93;;;;;;;7.04;97.39;101553.59;3610135;39;20047;-65
2023/12/27 05:44:41;;;;;;;14.25;7.32;;;;;;;7.04;97.90;101552.69;3606619;39;20113;-65
2023/12/27 05:47:07;;;;;;;18.90;6.88;;;;;;;7.05;98.07;101554.47;3609026;39;20051;-66
2023/12/27 05:49:33;;;;;;;16.98;7.18;;;;;;;6.95;98.97;101533.41;3606608;39;20120;-65
2023/12/27 05:51:59;;;;;;;17.05;7.47;;;;;;;7.06;99.35;101549.03;3606707;39;20058;-65
2023/12/27 05:54:26;;;;;;;17.42;6.78;;;;;;;7.05;98.98;101539.28;3596215;39;20058;-65
2023/12/27 05:56:54;;;;;;;14.30;7.00;;;;;;;7.05;99.32;101531.28;3604695;39;20366;-66
2023/12/27 05:59:20;;;;;;;14.70;6.80;;;;;;;7.09;99.15;101532.03;3605750;39;20427;-66
2023/12/27 06:01:54;;;;;;;18.98;6.78;;;;;;;7.08;99.31;101527.63;3606291;39;20062;-65
2023/12/27 06:04:21;;;;;;;15.45;6.65;;;;;;;6.96;99.10;101515.56;3606241;39;20055;-66
2023/12/27 06:06:51;;;;;;;17.33;7.47;;;;;;;7.03;99.15;101518.88;3607507;39;20051;-66
2023/12/27 06:09:17;;;;;;;16.58;7.10;;;;;;;7.07;100.00;101520.50;3595381;39;20051;-66
2023/12/27 06:11:43;;;;;;;17.25;6.88;;;;;;;7.06;99.67;101522.31;3605848;39;20517;-65
2023/12/27 06:14:08;;;;;;;18.27;7.22;;;;;;;7.07;100.00;101524.09;3605775;39;20043;-66
2023/12/27 06:16:34;;;;;;;13.52;7.07;;;;;;;7.09;100.00;101516.00;3610582;39;20040;-67
2023/12/27 06:19:00;;;;;;;17.20;6.63;;;;;;;7.12;100.00;101511.41;3606119;39;20768;-67
2023/12/27 06:21:26;;;;;;;11.70;6.68;;;;;;;7.13;100.00;101513.13;3607253;39;20124;-67
2023/12/27 06:23:52;;;;;;;15.93;7.45;;;;;;;7.13;100.00;101506.91;3606536;39;20380;-66
2023/12/27 06:26:18;;;;;;;13.90;7.15;;;;;;;7.15;100.00;101495.25;3607494;39;20059;-66
2023/12/27 06:28:44;;;;;;;15.68;7.07;;;;;;;6.92;100.00;101447.13;3607164;39;20051;-67
2023/12/27 06:31:10;;;;;;;13.90;7.45;;;;;;;7.15;100.00;101479.22;3605747;39;20091;-67
2023/12/27 06:33:36;;;;;;;14.35;7.47;;;;;;;7.17;100.00;101472.00;3606651;39;20085;-66
2023/12/27 06:36:05;;;;;;;15.05;7.78;;;;;;;7.17;100.00;101476.50;3608956;39;20318;-66
2023/12/27 06:38:30;;;;;;;11.85;7.60;;;;;;;7.18;100.00;101479.09;3609658;39;20427;-66
2023/12/27 06:40:56;;;;;;;13.57;7.43;;;;;;;7.20;100.00;101469.22;3606105;39;20050;-66
2023/12/27 06:43:22;;;;;;;11.73;7.40;;;;;;;7.25;100.00;101465.50;3610155;39;20055;-66
2023/12/27 06:45:49;;;;;;;12.90;7.97;;;;;;;7.25;100.00;101462.81;3609295;39;20087;-66
2023/12/27 06:48:14;;;;;;;10.70;7.18;;;;;;;7.30;100.00;101466.22;3608648;39;20055;-66
2023/12/27 06:50:41;;;;;;;10.95;7.57;;;;;;;7.19;100.00;101442.53;3608213;39;20321;-66
2023/12/27 06:53:07;;;;;;;10.50;6.82;;;;;;;7.34;100.00;101452.66;3607160;39;20055;-66
2023/12/27 06:55:32;;;;;;;11.80;7.50;;;;;;;7.33;100.00;101440.22;3606713;39;20371;-65
2023/12/27 06:57:59;;;;;;;12.07;7.45;;;;;;;7.40;100.00;101447.06;3607779;39;20059;-66
2023/12/27 07:00:26;;;;;;;9.05;6.82;;;;;;;7.47;100.00;101445.00;3607240;39;20051;-67
2023/12/27 07:02:51;;;;;;;10.55;7.07;;;;;;;7.49;100.00;101443.16;3607950;39;20066;-66
2023/12/27 07:05:17;;;;;;;9.75;6.88;;;;;;;7.53;100.00;101451.94;3607239;39;20058;-66
2023/12/27 07:07:42;;;;;;;8.15;6.80;;;;;;;7.55;100.00;101447.38;3605605;39;20051;-66
2023/12/27 07:10:08;;;;;;;9.40;7.00;;;;;;;7.57;100.00;101449.06;3607278;39;20299;-66
2023/12/27 07:12:34;;;;;;;8.07;6.78;;;;;;;7.59;100.00;101447.22;3607658;39;20059;-66
2023/12/27 07:14:59;;;;;;;10.57;7.07;;;;;;;7.61;100.00;101442.69;3610358;39;20062;-66
2023/12/27 07:17:25;;;;;;;12.00;7.05;;;;;;;7.64;100.00;101433.63;3607309;39;20194;-66
2023/12/27 07:19:51;;;;;;;7.75;6.95;;;;;;;7.67;100.00;101434.41;3605268;39;20047;-66
2023/12/27 07:22:17;;;;;;;7.90;7.10;;;;;;;7.72;100.00;101428.00;3606439;39;20061;-66
2023/12/27 07:24:43;;;;;;;9.45;7.70;;;;;;;7.74;100.00;101423.44;3605575;39;20040;-65
2023/12/27 07:27:09;;;;;;;8.25;7.43;;;;;;;7.78;100.00;101433.09;3606893;39;20058;-65
2023/12/27 07:29:38;;;;;;;9.63;7.50;;;;;;;7.82;100.00;101437.41;3607164;39;20051;-66
2023/12/27 07:32:05;;;;;;;12.05;8.10;;;;;;;7.85;100.00;101421.22;3605085;39;20156;-66
2023/12/27 07:34:32;;;;;;;10.57;8.02;;;;;;;7.87;100.00;101420.22;3607529;39;20059;-66
2023/12/27 07:36:58;;;;;;;9.70;8.02;;;;;;;7.90;100.00;101425.44;3606930;39;20479;-66
2023/12/27 07:39:24;;;;;;;9.48;7.35;;;;;;;7.90;100.00;101420.09;3610193;39;20039;-66
2023/12/27 07:41:50;;;;;;;11.93;8.20;;;;;;;7.96;100.00;101428.78;3607607;39;20307;-66
2023/12/27 07:44:16;;;;;;;10.13;8.48;;;;;;;7.71;100.00;101375.41;3605016;39;20054;-66
2023/12/27 07:46:43;;;;;;;9.73;8.55;;;;;;;8.00;100.00;101425.94;3605584;39;20055;-66
2023/12/27 07:49:09;;;;;;;12.18;8.50;;;;;;;8.03;100.00;101431.16;3606691;39;20094;-65
2023/12/27 07:51:35;;;;;;;10.13;8.70;;;;;;;7.96;100.00;101407.38;3606692;39;20067;-65
2023/12/27 07:54:00;;;;;;;10.43;8.48;;;;;;;8.10;100.00;101427.28;3606235;39;20419;-65
2023/12/27 07:56:28;;;;;;;8.93;8.02;;;;;;;8.14;100.00;101425.34;3607151;39;20058;-65
2023/12/27 07:58:54;;;;;;;10.68;8.15;;;;;;;8.16;100.00;101409.22;3608488;39;20063;-65
2023/12/27 08:01:21;;;;;;;10.90;7.93;;;;;;;8.20;100.00;101410.84;3606440;39;20051;-65
2023/12/27 08:03:46;;;;;;;11.25;8.50;;;;;;;8.22;100.00;101403.63;3606044;39;20053;-65
2023/12/27 08:06:12;;;;;;;11.90;7.97;;;;;;;8.24;100.00;101413.31;3605899;39;20055;-65
2023/12/27 08:08:38;;;;;;;11.18;8.25;;;;;;;8.28;100.00;101408.72;3609643;39;20043;-65
2023/12/27 08:11:04;;;;;;;9.93;7.90;;;;;;;8.30;100.00;101402.31;3605015;39;20079;-65
2023/12/27 08:13:31;;;;;;;11.32;8.23;;;;;;;8.33;100.00;101401.34;3612582;39;20407;-65
2023/12/27 08:15:58;;;;;;;9.30;7.95;;;;;;;8.35;100.00;101399.47;3606581;39;20112;-65
2023/12/27 08:18:23;;;;;;;9.30;7.55;;;;;;;8.29;100.00;101386.34;3605430;39;20052;-65
2023/12/27 08:20:50;;;;;;;13.70;8.85;;;;;;;8.40;100.00;101404.66;3606158;39;20364;-65
2023/12/27 08:23:18;;;;;;;9.88;7.97;;;;;;;8.44;100.00;101398.25;3610236;39;20377;-63
2023/12/27 08:25:45;;;;;;;9.15;7.70;;;;;;;8.45;100.00;101387.44;3604794;39;20046;-63
2023/12/27 08:28:11;;;;;;;10.10;8.13;;;;;;;8.48;100.00;101378.41;3607287;39;20051;-63
2023/12/27 08:30:37;;;;;;;10.73;8.55;;;;;;;8.50;100.00;101372.03;3608286;39;20054;-64
2023/12/27 08:33:07;;;;;;;8.90;7.55;;;;;;;8.52;100.00;101362.09;3605330;39;20073;-64
2023/12/27 08:35:37;;;;;;;10.82;8.00;;;;;;;8.56;100.00;101370.88;3605932;39;20055;-64
2023/12/27 08:38:05;;;;;;;12.40;7.47;;;;;;;8.56;100.00;101361.06;3604660;39;20111;-63
2023/12/27 08:40:31;;;;;;;12.43;8.02;;;;;;;8.59;100.00;101366.28;3607977;39;20054;-63
2023/12/27 08:42:57;;;;;;;9.82;7.88;;;;;;;8.63;100.00;101355.38;3609194;39;20104;-64
2023/12/27 08:45:23;;;;;;;9.65;7.15;;;;;;;8.67;100.00;101357.88;3607963;39;20163;-63
2023/12/27 08:47:49;;;;;;;9.55;6.97;;;;;;;8.68;100.00;101358.75;3610373;39;20101;-64
2023/12/27 08:50:15;;;;;;;8.57;7.18;;;;;;;8.72;100.00;101360.34;3604833;39;20396;-64
2023/12/27 08:52:41;;;;;;;11.40;7.07;;;;;;;8.59;100.00;101350.19;3605463;39;20417;-64
2023/12/27 08:55:08;;;;;;;8.52;6.03;;;;;;;8.77;100.00;101353.84;3609285;39;20343;-64
2023/12/27 08:57:34;;;;;;;9.30;6.18;;;;;;;8.80;100.00;101347.47;3605125;39;20043;-63
2023/12/27 09:00:00;;;;;;;10.25;5.95;;;;;;;8.84;100.00;101354.41;3605013;39;20042;-63
2023/12/27 09:02:27;;;;;;;9.75;6.05;;;;;;;8.85;100.00;101345.44;3604309;39;20120;-64
2023/12/27 09:04:53;;;;;;;9.88;6.28;;;;;;;8.89;100.00;101346.19;3607928;39;20055;-63
2023/12/27 09:07:18;;;;;;;8.55;5.57;;;;;;;8.91;100.00;101345.16;3605748;39;20051;-63
2023/12/27 09:09:44;;;;;;;7.63;5.80;;;;;;;8.92;100.00;101346.03;3610218;39;20395;-64
2023/12/27 09:12:09;;;;;;;7.75;5.78;;;;;;;8.93;100.00;101339.72;3604658;39;20055;-64
2023/12/27 09:14:39;;;;;;;7.32;5.32;;;;;;;8.94;100.00;101350.34;3606529;39;20055;-65
2023/12/27 09:17:05;;;;;;;7.80;5.28;;;;;;;8.93;100.00;101342.41;3605976;39;20094;-63
2023/12/27 09:19:31;;;;;;;7.25;5.38;;;;;;;8.98;100.00;101341.25;3606059;39;20043;-63
2023/12/27 09:21:57;;;;;;;8.70;5.28;;;;;;;8.99;100.00;101334.94;3610076;39;20116;-63
2023/12/27 09:24:22;;;;;;;8.88;5.20;;;;;;;8.99;100.00;101332.25;3610175;39;20069;-62
2023/12/27 09:26:48;;;;;;;7.78;5.43;;;;;;;8.99;100.00;101329.56;3612822;39;20421;-62
2023/12/27 09:29:15;;;;;;;8.90;5.22;;;;;;;9.02;100.00;101325.88;3613135;39;20051;-63
2023/12/27 09:31:41;;;;;;;5.70;5.00;;;;;;;8.98;100.00;101319.81;3612494;39;20389;-63
2023/12/27 09:34:07;;;;;;;7.57;5.20;;;;;;;9.07;100.00;101326.56;3609313;39;20079;-63
2023/12/27 09:36:32;;;;;;;8.43;5.10;;;;;;;8.90;100.00;101286.25;3613954;39;20053;-63
2023/12/27 09:38:59;;;;;;;5.35;4.85;;;;;;;9.11;100.00;101321.91;3613645;39;20057;-63
2023/12/27 09:41:24;;;;;;;9.23;4.60;;;;;;;9.14;100.00;101311.03;3613980;39;20073;-63
2023/12/27 09:43:54;;;;;;;7.07;4.38;;;;;;;9.01;100.00;101290.16;3613783;39;20047;-63
2023/12/27 09:46:21;;;;;;;6.55;4.70;;;;;;;9.20;100.00;101308.91;3614300;39;20058;-64
2023/12/27 09:48:50;;;;;;;8.82;4.70;;;;;;;9.24;100.00;101302.44;3612358;39;20118;-63
2023/12/27 09:51:23;;;;;;;7.00;4.40;;;;;;;9.29;100.00;101308.47;3608176;39;20063;-63
2023/12/27 09:53:50;;;;;;;6.63;4.60;;;;;;;9.33;100.00;101301.16;3612993;39;20119;-63
2023/12/27 09:56:18;;;;;;;6.05;4.10;;;;;;;9.35;100.00;101290.31;3614197;39;20053;-63
2023/12/27 09:58:48;;;;;;;5.65;3.83;;;;;;;9.42;100.00;101306.06;3611076;39;20062;-63
2023/12/27 10:01:16;;;;;;;4.97;3.70;;;;;;;9.46;100.00;101296.91;3612201;39;20090;-63
2023/12/27 10:03:51;;;;;;;5.07;3.05;;;;;;;9.47;100.00;101279.84;3613850;39;20055;-64
2023/12/27 10:06:24;;;;;;;5.53;3.63;;;;;;;9.59;100.00;101293.63;3597262;39;20236;-63
2023/12/27 10:08:50;;;;;;;3.25;2.90;;;;;;;9.62;100.00;101305.06;3612681;39;20051;-63
2023/12/27 10:11:18;;;;;;;3.65;2.70;;;;;;;9.65;100.00;101296.84;3612759;39;20050;-63
2023/12/27 10:13:47;;;;;;;3.92;2.60;;;;;;;9.72;100.00;101294.72;3611630;39;20402;-64
2023/12/27 10:16:12;;;;;;;3.55;2.40;;;;;;;9.76;100.00;101296.28;3613154;39;20056;-64
2023/12/27 10:18:38;;;;;;;5.22;2.50;;;;;;;9.82;100.00;101295.97;3614114;39;20047;-64
2023/12/27 10:21:04;;;;;;;3.42;1.55;;;;;;;9.87;100.00;101282.34;3610040;39;20058;-63
2023/12/27 10:23:34;;;;;;;3.65;2.42;;;;;;;9.92;100.00;101283.81;3603648;39;20069;-62
2023/12/27 10:26:00;;;;;;;5.30;1.95;;;;;;;9.97;100.00;101284.47;3611452;39;20043;-63
2023/12/27 10:28:25;;;;;;;4.03;1.60;;;;;;;9.99;99.85;101270.97;3610416;39;20055;-64
2023/12/27 10:30:52;;;;;;;3.35;1.85;;;;;;;9.60;99.95;101209.44;3611945;39;20059;-64
2023/12/27 10:33:20;;;;;;;4.05;1.90;;;;;;;10.09;99.53;101257.91;3603040;39;20384;-62
2023/12/27 10:35:47;;;;;;;4.47;2.70;;;;;;;10.14;99.03;101261.22;3613653;39;20046;-62
2023/12/27 10:38:13;;;;;;;3.95;1.80;;;;;;;9.99;98.16;101234.22;3612596;39;20124;-62
2023/12/27 10:40:41;;;;;;;6.30;1.80;;;;;;;10.19;97.90;101264.53;3613243;39;20047;-63
2023/12/27 10:43:08;;;;;;;6.10;2.17;;;;;;;10.20;97.27;101252.81;3611250;39;20067;-63
2023/12/27 10:45:36;;;;;;;4.82;2.38;;;;;;;10.21;97.66;101254.56;3612928;39;20057;-63
2023/12/27 10:48:04;;;;;;;5.03;1.90;;;;;;;10.26;96.89;101252.53;3611708;39;20046;-63
2023/12/27 10:50:32;;;;;;;4.00;1.92;;;;;;;10.24;96.41;101251.69;3613541;39;20119;-64
2023/12/27 10:53:02;;;;;;;7.18;1.90;;;;;;;10.28;96.76;101252.47;3611320;39;20375;-63
2023/12/27 10:55:30;;;;;;;4.22;2.20;;;;;;;10.28;95.90;101237.22;3613087;39;20051;-63
2023/12/27 10:57:59;;;;;;;2.95;2.10;;;;;;;10.36;95.18;101242.16;3611941;39;20405;-64
2023/12/27 11:00:25;;;;;;;5.25;2.58;;;;;;;10.33;95.59;101232.44;3610286;39;20062;-63
2023/12/27 11:02:52;;;;;;;6.32;2.60;;;;;;;10.34;95.35;101226.13;3612205;39;20053;-61
2023/12/27 11:05:30;;;;;;;5.32;2.28;;;;;;;10.34;94.42;101228.81;3613577;39;20059;-61
2023/12/27 11:07:58;;;;;;;7.97;3.22;;;;;;;10.36;94.74;101216.16;3612475;39;20042;-62
2023/12/27 11:10:29;;;;;;;5.43;2.92;;;;;;;10.39;94.33;101205.22;3599679;39;20085;-62
2023/12/27 11:12:59;;;;;;;7.45;2.95;;;;;;;10.41;93.56;101207.84;3611884;39;20086;-63
2023/12/27 11:15:26;;;;;;;10.63;2.95;;;;;;;10.41;93.55;101211.41;3610485;39;20051;-61
2023/12/27 11:17:56;;;;;;;6.30;2.42;;;;;;;10.43;92.98;101217.56;3610064;39;20051;-61
2023/12/27 11:20:23;;;;;;;5.88;2.20;;;;;;;10.45;93.32;101221.03;3608382;39;20173;-63